Terminal Aerodrome Forecast
Issued by NWS Spokane, WA

Home | Current Version | Previous Version | Text Only | Print | Product List | Glossary On
Versions: 1 2 3 4 5 6 7 8 9 10 11 12 13 14 15 16 17 18 19 20 21 22
000
FTUS46 KOTX 181720
TAFEAT
TAF
KEAT 181720Z 1818/1918 30010KT P6SM VCSH SCT080 BKN100 BKN120
     FM182100 30014G22KT P6SM SCT100 BKN130
     FM190000 30019G30KT P6SM SCT100 BKN150
     FM190300 30013KT P6SM SCT100 BKN150
     FM190900 30006KT P6SM SCT150=

USA.gov is the U.S. government's official web portal to all federal, state and local government web resources and services.